createdAt,value
2018-03-16T00:00:16.354Z,1001.99
2018-03-16T00:01:25.813Z,1001.95
2018-03-16T00:02:36.023Z,1002
2018-03-16T00:03:45.981Z,1001.99
2018-03-16T00:04:55.937Z,1001.94
2018-03-16T00:06:05.383Z,1001.96
2018-03-16T00:07:15.362Z,1001.97
2018-03-16T00:08:25.357Z,1001.96
2018-03-16T00:09:35.077Z,1002.04
2018-03-16T00:10:44.534Z,1002
2018-03-16T00:11:53.709Z,1002.05
2018-03-16T00:13:03.664Z,1002.04
2018-03-16T00:14:13.632Z,1002.03
2018-03-16T00:15:23.073Z,1002.03
2018-03-16T00:16:32.785Z,1002.01
2018-03-16T00:17:42.493Z,1002.09
2018-03-16T00:18:52.216Z,1001.98
2018-03-16T00:20:02.206Z,1001.99
2018-03-16T00:21:12.162Z,1002
2018-03-16T00:22:22.118Z,1002.05
2018-03-16T00:23:31.813Z,1002.02
2018-03-16T00:24:41.262Z,1002.01
2018-03-16T00:25:50.964Z,1002
2018-03-16T00:27:00.660Z,1001.94
2018-03-16T00:28:10.631Z,1001.91
2018-03-16T00:29:20.330Z,1001.99
2018-03-16T00:30:30.336Z,1001.96
2018-03-16T00:31:39.780Z,1001.95
2018-03-16T00:32:49.479Z,1001.95
2018-03-16T00:33:58.654Z,1001.89
2018-03-16T00:35:08.094Z,1001.91
2018-03-16T00:36:18.057Z,1001.93
2018-03-16T00:37:27.757Z,1001.94
2018-03-16T00:38:37.194Z,1001.9
2018-03-16T00:39:46.636Z,1001.86
2018-03-16T00:40:56.580Z,1001.85
2018-03-16T00:42:05.775Z,1001.84
2018-03-16T00:43:15.746Z,1001.79
2018-03-16T00:44:25.180Z,1001.72
2018-03-16T00:45:34.878Z,1001.74
2018-03-16T00:46:44.582Z,1001.74
2018-03-16T00:47:54.536Z,1001.71
2018-03-16T00:49:04.230Z,1001.7
2018-03-16T00:50:14.262Z,1001.65
2018-03-16T00:51:24.219Z,1001.69
2018-03-16T00:52:34.191Z,1001.68
2018-03-16T00:53:43.893Z,1001.75
2018-03-16T00:54:53.862Z,1001.75
2018-03-16T00:56:03.558Z,1001.7
2018-03-16T00:57:13.256Z,1001.7
2018-03-16T00:58:23.217Z,1001.78
2018-03-16T00:59:32.914Z,1001.68
2018-03-16T01:00:42.876Z,1001.72
2018-03-16T01:01:53.088Z,1001.69
2018-03-16T01:03:02.786Z,1001.72
2018-03-16T01:04:12.733Z,1001.66
2018-03-16T01:05:22.441Z,1001.67
2018-03-16T01:06:32.406Z,1001.6
2018-03-16T01:07:42.118Z,1001.59
2018-03-16T01:08:51.819Z,1001.65
2018-03-16T01:10:01.776Z,1001.58
2018-03-16T01:11:11.471Z,1001.55
2018-03-16T01:12:21.164Z,1001.66
2018-03-16T01:13:31.113Z,1001.52
2018-03-16T01:14:40.804Z,1001.53
2018-03-16T01:15:50.760Z,1001.57
2018-03-16T01:17:00.454Z,1001.49
2018-03-16T01:18:10.434Z,1001.5
2018-03-16T01:19:20.140Z,1001.54
2018-03-16T01:20:29.847Z,1001.48
2018-03-16T01:21:39.795Z,1001.52
2018-03-16T01:22:49.490Z,1001.52
2018-03-16T01:23:59.452Z,1001.57
2018-03-16T01:25:08.627Z,1001.53
2018-03-16T01:26:18.062Z,1001.53
2018-03-16T01:27:27.750Z,1001.61
2018-03-16T01:28:37.438Z,1001.56
2018-03-16T01:29:47.140Z,1001.55
2018-03-16T01:30:57.155Z,1001.52
2018-03-16T01:32:07.122Z,1001.53
2018-03-16T01:33:16.819Z,1001.55
2018-03-16T01:34:26.513Z,1001.6
2018-03-16T01:35:36.266Z,1001.7
2018-03-16T01:36:45.980Z,1001.72
2018-03-16T01:37:55.162Z,1001.67
2018-03-16T01:39:05.127Z,1001.55
2018-03-16T01:40:14.822Z,1001.68
2018-03-16T01:41:24.266Z,1001.75
2018-03-16T01:42:33.982Z,1001.71
2018-03-16T01:43:43.410Z,1001.73
2018-03-16T01:44:53.101Z,1001.67
2018-03-16T01:46:02.797Z,1001.6
2018-03-16T01:47:12.234Z,1001.54
2018-03-16T01:48:21.935Z,1001.61
2018-03-16T01:49:31.385Z,1001.55
2018-03-16T01:50:40.579Z,1001.54
2018-03-16T01:51:50.270Z,1001.43
2018-03-16T01:52:59.981Z,1001.56
2018-03-16T01:54:09.949Z,1001.54
2018-03-16T01:55:19.650Z,1001.64
2018-03-16T01:56:29.346Z,1001.58
2018-03-16T01:57:39.305Z,1001.68
2018-03-16T01:58:49.264Z,1001.63
2018-03-16T01:59:58.957Z,1001.62
2018-03-16T02:01:08.401Z,1001.64
2018-03-16T02:02:18.350Z,1001.69
2018-03-16T02:03:28.329Z,1001.56
2018-03-16T02:04:38.277Z,1001.62
2018-03-16T02:05:47.719Z,1001.58
2018-03-16T02:06:57.667Z,1001.68
2018-03-16T02:08:07.632Z,1001.77
2018-03-16T02:09:17.068Z,1001.74
2018-03-16T02:10:26.767Z,1001.76
2018-03-16T02:11:36.733Z,1001.79
2018-03-16T02:12:46.707Z,1001.83
2018-03-16T02:13:56.417Z,1001.74
2018-03-16T02:15:05.872Z,1001.76
2018-03-16T02:16:15.563Z,1001.85
2018-03-16T02:17:25.520Z,1001.78
2018-03-16T02:18:35.216Z,1001.85
2018-03-16T02:19:44.648Z,1001.81
2018-03-16T02:20:54.079Z,1001.81
2018-03-16T02:22:04.031Z,1001.75
2018-03-16T02:23:13.477Z,1001.78
2018-03-16T02:24:23.431Z,1001.65
2018-03-16T02:25:33.126Z,1001.74
2018-03-16T02:26:43.080Z,1001.68
2018-03-16T02:27:52.818Z,1001.7
2018-03-16T02:29:02.512Z,1001.61
2018-03-16T02:30:12.227Z,1001.53
2018-03-16T02:31:21.954Z,1001.6
2018-03-16T02:32:31.932Z,1001.58
2018-03-16T02:33:41.635Z,1001.6
2018-03-16T02:34:51.593Z,1001.64
2018-03-16T02:36:01.801Z,1001.58
2018-03-16T02:37:11.753Z,1001.64
2018-03-16T02:38:21.456Z,1001.59
2018-03-16T02:39:31.160Z,1001.56
2018-03-16T02:40:40.605Z,1001.6
2018-03-16T02:41:50.318Z,1001.59
2018-03-16T02:42:59.763Z,1001.59
2018-03-16T02:44:09.714Z,1001.52
2018-03-16T02:45:19.156Z,1001.53
2018-03-16T02:46:28.847Z,1001.59
2018-03-16T02:47:38.814Z,1001.64
2018-03-16T02:48:48.772Z,1001.57
2018-03-16T02:49:58.490Z,1001.59
2018-03-16T02:51:08.465Z,1001.59
2018-03-16T02:52:18.135Z,1001.54
2018-03-16T02:53:28.096Z,1001.56
2018-03-16T02:54:38.068Z,1001.44
2018-03-16T02:55:48.046Z,1001.43
2018-03-16T02:56:57.748Z,1001.47
2018-03-16T02:58:07.709Z,1001.5
2018-03-16T02:59:17.676Z,1001.52
2018-03-16T03:00:27.109Z,1001.37
2018-03-16T03:01:36.030Z,1001.47
2018-03-16T03:02:45.737Z,1001.43
2018-03-16T03:03:55.693Z,1001.43
2018-03-16T03:05:05.393Z,1001.42
2018-03-16T03:06:15.356Z,1001.53
2018-03-16T03:07:24.807Z,1001.53
2018-03-16T03:08:34.776Z,1001.47
2018-03-16T03:09:44.485Z,1001.53
2018-03-16T03:10:54.449Z,1001.59
2018-03-16T03:12:04.411Z,1001.65
2018-03-16T03:13:13.858Z,1001.53
2018-03-16T03:14:23.559Z,1001.52
2018-03-16T03:15:33.511Z,1001.57
2018-03-16T03:16:43.456Z,1001.68
2018-03-16T03:17:53.411Z,1001.69
2018-03-16T03:19:03.099Z,1001.67
2018-03-16T03:20:12.542Z,1001.7
2018-03-16T03:21:22.494Z,1001.77
2018-03-16T03:22:32.444Z,1001.77
2018-03-16T03:23:42.395Z,1001.83
2018-03-16T03:24:52.091Z,1001.73
2018-03-16T03:26:02.035Z,1001.78
2018-03-16T03:27:11.990Z,1001.79
2018-03-16T03:28:21.947Z,1001.91
2018-03-16T03:29:31.380Z,1001.75
2018-03-16T03:30:41.090Z,1001.95
2018-03-16T03:31:50.543Z,1001.94
2018-03-16T03:33:00.237Z,1001.87
2018-03-16T03:34:09.933Z,1001.87
2018-03-16T03:35:20.006Z,1001.9
2018-03-16T03:36:29.700Z,1001.96
2018-03-16T03:37:39.962Z,1001.98
2018-03-16T03:38:49.922Z,1001.81
2018-03-16T03:39:59.879Z,1001.9
2018-03-16T03:41:09.839Z,1001.85
2018-03-16T03:42:19.532Z,1001.84
2018-03-16T03:43:29.498Z,1001.92
2018-03-16T03:44:39.473Z,1001.89
2018-03-16T03:45:49.421Z,1001.86
2018-03-16T03:46:59.115Z,1001.86
2018-03-16T03:48:09.078Z,1001.84
2018-03-16T03:49:18.774Z,1001.79
2018-03-16T03:50:28.715Z,1001.76
2018-03-16T03:51:38.663Z,1001.77
2018-03-16T03:52:48.626Z,1001.69
2018-03-16T03:53:58.587Z,1001.6
2018-03-16T03:55:08.539Z,1001.66
2018-03-16T03:56:18.490Z,1001.67
2018-03-16T03:57:28.446Z,1001.68
2018-03-16T03:58:38.415Z,1001.65
2018-03-16T03:59:48.458Z,1001.64
2018-03-16T04:00:58.430Z,1001.69
2018-03-16T04:02:08.132Z,1001.65
2018-03-16T04:03:18.086Z,1001.75
2018-03-16T04:04:27.530Z,1001.67
2018-03-16T04:05:36.964Z,1001.76
2018-03-16T04:06:46.923Z,1001.66
2018-03-16T04:07:56.119Z,1001.62
2018-03-16T04:09:06.136Z,1001.68
2018-03-16T04:10:15.826Z,1001.64
2018-03-16T04:11:25.269Z,1001.67
2018-03-16T04:12:35.229Z,1001.6
2018-03-16T04:13:45.189Z,1001.59
2018-03-16T04:14:55.175Z,1001.62
2018-03-16T04:16:05.138Z,1001.57
2018-03-16T04:17:15.102Z,1001.57
2018-03-16T04:18:24.283Z,1001.6
2018-03-16T04:19:33.978Z,1001.6
2018-03-16T04:20:43.687Z,1001.63
2018-03-16T04:21:53.385Z,1001.64
2018-03-16T04:23:03.079Z,1001.65
2018-03-16T04:24:12.783Z,1001.7
2018-03-16T04:25:22.749Z,1001.68
2018-03-16T04:26:32.497Z,1001.66
2018-03-16T04:27:42.445Z,1001.66
2018-03-16T04:28:52.137Z,1001.64
2018-03-16T04:30:01.577Z,1001.67
2018-03-16T04:31:11.549Z,1001.64
2018-03-16T04:32:21.295Z,1001.66
2018-03-16T04:33:30.773Z,1001.66
2018-03-16T04:34:40.268Z,1001.65
2018-03-16T04:35:50.228Z,1001.61
2018-03-16T04:36:59.664Z,1001.61
2018-03-16T04:38:08.855Z,1001.71
2018-03-16T04:39:18.031Z,1001.64
2018-03-16T04:40:27.720Z,1001.65
2018-03-16T04:41:37.164Z,1001.73
2018-03-16T04:42:47.131Z,1001.69
2018-03-16T04:43:57.079Z,1001.71
2018-03-16T04:45:06.521Z,1001.78
2018-03-16T04:46:16.483Z,1001.77
2018-03-16T04:47:26.432Z,1001.67
2018-03-16T04:48:36.391Z,1001.71
2018-03-16T04:49:46.356Z,1001.74
2018-03-16T04:50:56.319Z,1001.8
2018-03-16T04:52:06.030Z,1001.77
2018-03-16T04:53:15.732Z,1001.77
2018-03-16T04:54:25.433Z,1001.8
2018-03-16T04:55:35.396Z,1001.85
2018-03-16T04:56:45.349Z,1001.84
2018-03-16T04:57:55.306Z,1001.83
2018-03-16T04:59:05.310Z,1001.74
2018-03-16T05:00:15.016Z,1001.82
2018-03-16T05:01:24.717Z,1001.77
2018-03-16T05:02:34.413Z,1001.82
2018-03-16T05:03:43.862Z,1001.79
2018-03-16T05:04:53.557Z,1001.8
2018-03-16T05:06:03.520Z,1001.77
2018-03-16T05:07:13.470Z,1001.79
2018-03-16T05:08:23.169Z,1001.76
2018-03-16T05:09:32.603Z,1001.82
2018-03-16T05:10:42.560Z,1001.74
2018-03-16T05:11:52.555Z,1001.66
2018-03-16T05:13:02.514Z,1001.68
2018-03-16T05:14:12.219Z,1001.57
2018-03-16T05:15:21.674Z,1001.62
2018-03-16T05:16:31.117Z,1001.7
2018-03-16T05:17:40.292Z,1001.64
2018-03-16T05:18:50.248Z,1001.7
2018-03-16T05:20:00.203Z,1001.68
2018-03-16T05:21:09.902Z,1001.6
2018-03-16T05:22:19.873Z,1001.63
2018-03-16T05:23:29.587Z,1001.54
2018-03-16T05:24:39.295Z,1001.62
2018-03-16T05:25:49.010Z,1001.55
2018-03-16T05:26:58.715Z,1001.61
2018-03-16T05:28:08.420Z,1001.6
2018-03-16T05:29:18.125Z,1001.66
2018-03-16T05:30:28.301Z,1001.63
2018-03-16T05:31:38.333Z,1001.6
2018-03-16T05:32:48.034Z,1001.67
2018-03-16T05:33:57.743Z,1001.65
2018-03-16T05:35:07.446Z,1001.66
2018-03-16T05:36:16.885Z,1001.68
2018-03-16T05:37:26.585Z,1001.66
2018-03-16T05:38:36.022Z,1001.66
2018-03-16T05:39:45.976Z,1001.64
2018-03-16T05:40:55.934Z,1001.52
2018-03-16T05:42:05.649Z,1001.56
2018-03-16T05:43:15.102Z,1001.75
2018-03-16T05:44:25.097Z,1001.58
2018-03-16T05:45:35.055Z,1001.58
2018-03-16T05:46:45.007Z,1001.59
2018-03-16T05:47:54.716Z,1001.64
2018-03-16T05:49:04.679Z,1001.64
2018-03-16T05:50:14.427Z,1001.6
2018-03-16T05:51:24.124Z,1001.68
2018-03-16T05:52:33.834Z,1001.66
2018-03-16T05:53:43.544Z,1001.75
2018-03-16T05:54:53.565Z,1001.74
2018-03-16T05:56:03.287Z,1001.77
2018-03-16T05:57:13.247Z,1001.78
2018-03-16T05:58:23.204Z,1001.76
2018-03-16T05:59:32.928Z,1001.84
2018-03-16T06:00:42.390Z,1001.75
2018-03-16T06:01:52.347Z,1001.74
2018-03-16T06:03:01.784Z,1001.76
2018-03-16T06:04:11.478Z,1001.76
2018-03-16T06:05:21.185Z,1001.76
2018-03-16T06:06:31.151Z,1001.76
2018-03-16T06:07:41.109Z,1001.69
2018-03-16T06:08:50.809Z,1001.63
2018-03-16T06:10:00.767Z,1001.6
2018-03-16T06:11:10.489Z,1001.57
2018-03-16T06:12:20.462Z,1001.6
2018-03-16T06:13:29.650Z,1001.63
2018-03-16T06:14:39.608Z,1001.61
2018-03-16T06:15:49.304Z,1001.56
2018-03-16T06:16:58.740Z,1001.62
2018-03-16T06:18:08.762Z,1001.58
2018-03-16T06:19:18.725Z,1001.61
2018-03-16T06:20:28.227Z,1001.72
2018-03-16T06:21:37.974Z,1001.67
2018-03-16T06:22:47.414Z,1001.7
2018-03-16T06:23:56.886Z,1001.7
2018-03-16T06:25:06.593Z,1001.74
2018-03-16T06:26:16.313Z,1001.72
2018-03-16T06:27:26.024Z,1001.72
2018-03-16T06:28:35.467Z,1001.69
2018-03-16T06:29:45.474Z,1001.72
2018-03-16T06:30:55.450Z,1001.74
2018-03-16T06:32:04.891Z,1001.76
2018-03-16T06:33:14.588Z,1001.71
2018-03-16T06:34:23.772Z,1001.78
2018-03-16T06:35:33.498Z,1001.72
2018-03-16T06:36:43.205Z,1001.66
2018-03-16T06:37:52.915Z,1001.73
2018-03-16T06:39:02.616Z,1001.75
2018-03-16T06:40:12.315Z,1001.6
2018-03-16T06:41:22.018Z,1001.82
2018-03-16T06:42:30.951Z,1001.73
2018-03-16T06:43:40.933Z,1001.78
2018-03-16T06:44:50.978Z,1001.7
2018-03-16T06:46:00.823Z,1001.75
2018-03-16T06:47:10.785Z,1001.71
2018-03-16T06:48:20.736Z,1001.89
2018-03-16T06:49:30.694Z,1001.74
2018-03-16T06:50:40.649Z,1001.73
2018-03-16T06:51:50.417Z,1001.8
2018-03-16T06:53:00.546Z,1001.88
2018-03-16T06:54:10.512Z,1001.73
2018-03-16T06:55:20.478Z,1001.91
2018-03-16T06:56:30.443Z,1001.84
2018-03-16T06:57:39.878Z,1001.89
2018-03-16T06:58:49.602Z,1001.91
2018-03-16T06:59:59.323Z,1001.85
2018-03-16T07:01:09.310Z,1001.89
2018-03-16T07:02:19.282Z,1001.88
2018-03-16T07:03:28.722Z,1001.97
2018-03-16T07:04:38.685Z,1001.94
2018-03-16T07:05:48.378Z,1001.95
2018-03-16T07:06:58.361Z,1001.91
2018-03-16T07:08:08.079Z,1001.96
2018-03-16T07:09:17.792Z,1002
2018-03-16T07:10:27.497Z,1002
2018-03-16T07:11:36.973Z,1001.99
2018-03-16T07:12:46.420Z,1001.95
2018-03-16T07:13:55.866Z,1001.99
2018-03-16T07:15:05.572Z,1001.99
2018-03-16T07:16:14.760Z,1001.98
2018-03-16T07:17:24.508Z,1002.02
2018-03-16T07:18:34.307Z,1001.84
2018-03-16T07:19:43.773Z,1001.97
2018-03-16T07:20:53.224Z,1002.12
2018-03-16T07:22:03.181Z,1001.98
2018-03-16T07:23:12.903Z,1002
2018-03-16T07:24:22.693Z,1002.09
2018-03-16T07:25:32.399Z,1002.03
2018-03-16T07:26:42.100Z,1002.08
2018-03-16T07:27:52.080Z,1002.16
2018-03-16T07:29:01.531Z,1002.09
2018-03-16T07:30:10.976Z,1002.08
2018-03-16T07:31:20.969Z,1002.06
2018-03-16T07:32:30.421Z,1001.94
2018-03-16T07:33:40.129Z,1001.96
2018-03-16T07:34:49.832Z,1002.07
2018-03-16T07:35:59.561Z,1002.17
2018-03-16T07:37:09.032Z,1002.14
2018-03-16T07:38:19.129Z,1002.12
2018-03-16T07:39:28.841Z,1002.13
2018-03-16T07:40:38.826Z,1002.15
2018-03-16T07:41:48.789Z,1002.1
2018-03-16T07:42:58.761Z,1002.09
2018-03-16T07:44:08.730Z,1002.06
2018-03-16T07:45:18.449Z,1002.06
2018-03-16T07:46:28.423Z,1002.16
2018-03-16T07:47:38.479Z,1002.06
2018-03-16T07:48:47.925Z,1002.07
2018-03-16T07:49:57.631Z,1002.12
2018-03-16T07:51:07.614Z,1002.05
2018-03-16T07:52:17.058Z,1002.04
2018-03-16T07:53:26.766Z,1002.01
2018-03-16T07:54:36.469Z,1002.04
2018-03-16T07:55:46.474Z,1002.03
2018-03-16T07:56:56.447Z,1002.07
2018-03-16T07:58:06.433Z,1001.9
2018-03-16T07:59:16.406Z,1002.08
2018-03-16T08:00:26.383Z,1001.98
2018-03-16T08:01:36.345Z,1002
2018-03-16T08:02:46.314Z,1002.07
2018-03-16T08:03:56.290Z,1002.12
2018-03-16T08:05:06.256Z,1002.1
2018-03-16T08:06:16.217Z,1002.01
2018-03-16T08:07:26.270Z,1001.99
2018-03-16T08:08:36.258Z,1002.08
2018-03-16T08:09:46.019Z,1002
2018-03-16T08:10:55.486Z,1002.05
2018-03-16T08:12:05.194Z,1002.03
2018-03-16T08:13:14.896Z,1002.07
2018-03-16T08:14:24.884Z,1002
2018-03-16T08:15:35.132Z,1002
2018-03-16T08:16:45.138Z,1001.96
2018-03-16T08:17:54.872Z,1001.95
2018-03-16T08:19:04.661Z,1002.01
2018-03-16T08:20:14.384Z,1002.08
2018-03-16T08:21:24.381Z,1002.13
2018-03-16T08:22:34.366Z,1002.1
2018-03-16T08:23:44.343Z,1002.1
2018-03-16T08:24:54.328Z,1002.14
2018-03-16T08:26:04.301Z,1002.1
2018-03-16T08:27:14.338Z,1002.13
2018-03-16T08:28:24.321Z,1002.05
2018-03-16T08:29:34.192Z,1002.2
2018-03-16T08:30:44.175Z,1002.12
2018-03-16T08:31:53.379Z,1002.1
2018-03-16T08:33:03.364Z,1002.14
2018-03-16T08:34:13.075Z,1002.21
2018-03-16T08:35:23.076Z,1002.14
2018-03-16T08:36:33.072Z,1002.15
2018-03-16T08:37:43.044Z,1002.13
2018-03-16T08:38:52.772Z,1002.24
2018-03-16T08:40:02.770Z,1002.24
2018-03-16T08:41:12.216Z,1002.3
2018-03-16T08:42:21.689Z,1002.28
2018-03-16T08:43:31.402Z,1002.27
2018-03-16T08:44:41.368Z,1002.43
2018-03-16T08:45:51.068Z,1002.36
2018-03-16T08:47:00.956Z,1002.29
2018-03-16T08:48:10.678Z,1002.39
2018-03-16T08:49:20.681Z,1002.33
2018-03-16T08:50:30.665Z,1002.39
2018-03-16T08:51:40.387Z,1002.44
2018-03-16T08:52:49.575Z,1002.41
2018-03-16T08:53:59.631Z,1002.43
2018-03-16T08:55:09.106Z,1002.39
2018-03-16T08:56:18.551Z,1002.38
2018-03-16T08:57:28.512Z,1002.38
2018-03-16T08:58:38.220Z,1002.43
2018-03-16T08:59:48.242Z,1002.41
2018-03-16T09:00:58.227Z,1002.39
2018-03-16T09:02:07.151Z,1002.35
2018-03-16T09:03:16.862Z,1002.3
2018-03-16T09:04:26.592Z,1002.32
2018-03-16T09:05:36.311Z,1002.36
2018-03-16T09:06:46.033Z,1002.4
2018-03-16T09:07:55.747Z,1002.34
2018-03-16T09:09:05.727Z,1002.32
2018-03-16T09:10:15.728Z,1002.36
2018-03-16T09:11:25.698Z,1002.43
2018-03-16T09:12:35.405Z,1002.41
2018-03-16T09:13:44.850Z,1002.44
2018-03-16T09:14:54.827Z,1002.44
2018-03-16T09:16:04.799Z,1002.48
2018-03-16T09:17:14.770Z,1002.48
2018-03-16T09:18:24.472Z,1002.36
2018-03-16T09:19:34.204Z,1002.5
2018-03-16T09:20:44.184Z,1002.46
2018-03-16T09:21:54.161Z,1002.55
2018-03-16T09:23:03.621Z,1002.53
2018-03-16T09:24:13.367Z,1002.57
2018-03-16T09:25:23.067Z,1002.54
2018-03-16T09:26:32.935Z,1002.48
2018-03-16T09:27:42.674Z,1002.57
2018-03-16T09:28:52.649Z,1002.56
2018-03-16T09:30:01.832Z,1002.5
2018-03-16T09:31:11.801Z,1002.57
2018-03-16T09:32:21.515Z,1002.55
2018-03-16T09:33:30.966Z,1002.48
2018-03-16T09:34:40.667Z,1002.54
2018-03-16T09:35:50.454Z,1002.55
2018-03-16T09:37:00.430Z,1002.45
2018-03-16T09:38:10.141Z,1002.55
2018-03-16T09:39:19.878Z,1002.55
2018-03-16T09:40:29.325Z,1002.54
2018-03-16T09:41:39.027Z,1002.58
2018-03-16T09:42:48.995Z,1002.55
2018-03-16T09:43:58.431Z,1002.58
2018-03-16T09:45:08.126Z,1002.5
2018-03-16T09:46:18.095Z,1002.51
2018-03-16T09:47:27.520Z,1002.49
2018-03-16T09:48:36.966Z,1002.51
2018-03-16T09:49:46.704Z,1002.51
2018-03-16T09:50:56.161Z,1002.42
2018-03-16T09:52:06.138Z,1002.39
2018-03-16T09:53:15.588Z,1002.47
2018-03-16T09:54:25.561Z,1002.46
2018-03-16T09:55:35.267Z,1002.55
2018-03-16T09:56:45.229Z,1002.53
2018-03-16T09:57:54.664Z,1002.52
2018-03-16T09:59:04.148Z,1002.55
2018-03-16T10:00:13.363Z,1002.52
2018-03-16T10:01:23.077Z,1002.41
2018-03-16T10:02:33.064Z,1002.44
2018-03-16T10:03:43.054Z,1002.45
2018-03-16T10:04:53.084Z,1002.46
2018-03-16T10:06:02.555Z,1002.44
2018-03-16T10:07:12.530Z,1002.52
2018-03-16T10:08:22.517Z,1002.5
2018-03-16T10:09:32.270Z,1002.53
2018-03-16T10:10:42.308Z,1002.51
2018-03-16T10:11:51.607Z,1002.55
2018-03-16T10:13:01.385Z,1002.37
2018-03-16T10:14:11.352Z,1002.42
2018-03-16T10:15:21.313Z,1002.55
2018-03-16T10:16:31.292Z,1002.5
2018-03-16T10:17:41.307Z,1002.5
2018-03-16T10:18:51.086Z,1002.47
2018-03-16T10:20:01.070Z,1002.45
2018-03-16T10:21:10.780Z,1002.51
2018-03-16T10:22:20.739Z,1002.5
2018-03-16T10:23:30.181Z,1002.55
2018-03-16T10:24:40.157Z,1002.61
2018-03-16T10:25:49.856Z,1002.63
2018-03-16T10:26:59.583Z,1002.57
2018-03-16T10:28:09.553Z,1002.61
2018-03-16T10:29:19.262Z,1002.57
2018-03-16T10:30:29.230Z,1002.6
2018-03-16T10:31:39.205Z,1002.54
2018-03-16T10:32:49.198Z,1002.54
2018-03-16T10:33:58.900Z,1002.6
2018-03-16T10:35:08.603Z,1002.65
2018-03-16T10:36:18.576Z,1002.61
2018-03-16T10:37:28.024Z,1002.65
2018-03-16T10:38:37.992Z,1002.65
2018-03-16T10:39:47.753Z,1002.6
2018-03-16T10:40:57.740Z,1002.62
2018-03-16T10:42:07.707Z,1002.61
2018-03-16T10:43:17.708Z,1002.57
2018-03-16T10:44:27.707Z,1002.51
2018-03-16T10:45:37.525Z,1002.61
2018-03-16T10:46:47.213Z,1002.49
2018-03-16T10:47:56.914Z,1002.63
2018-03-16T10:49:06.896Z,1002.63
2018-03-16T10:50:16.606Z,1002.62
2018-03-16T10:51:26.323Z,1002.66
2018-03-16T10:52:36.063Z,1002.63
2018-03-16T10:53:45.776Z,1002.63
2018-03-16T10:54:55.740Z,1002.64
2018-03-16T10:56:05.725Z,1002.57
2018-03-16T10:57:15.699Z,1002.46
2018-03-16T10:58:25.400Z,1002.57
2018-03-16T10:59:35.382Z,1002.54
2018-03-16T11:00:45.124Z,1002.54
2018-03-16T11:01:55.078Z,1002.52
2018-03-16T11:03:04.792Z,1002.55
2018-03-16T11:04:14.497Z,1002.55
2018-03-16T11:05:24.214Z,1002.45
2018-03-16T11:06:34.154Z,1002.56
2018-03-16T11:07:43.937Z,1002.54
2018-03-16T11:08:53.384Z,1002.54
2018-03-16T11:10:02.840Z,1002.46
2018-03-16T11:11:12.024Z,1002.45
2018-03-16T11:12:21.772Z,1002.5
2018-03-16T11:13:31.506Z,1002.55
2018-03-16T11:14:41.235Z,1002.57
2018-03-16T11:15:50.706Z,1002.52
2018-03-16T11:17:00.661Z,1002.52
2018-03-16T11:18:10.169Z,1002.54
2018-03-16T11:19:19.646Z,1002.58
2018-03-16T11:20:29.645Z,1002.51
2018-03-16T11:21:39.406Z,1002.48
2018-03-16T11:22:48.927Z,1002.54
2018-03-16T11:23:58.764Z,1002.54
2018-03-16T11:25:08.763Z,1002.57
2018-03-16T11:26:18.504Z,1002.54
2018-03-16T11:27:28.564Z,1002.59
2018-03-16T11:28:38.026Z,1002.59
2018-03-16T11:29:47.789Z,1002.63
2018-03-16T11:30:57.513Z,1002.66
2018-03-16T11:32:07.249Z,1002.59
2018-03-16T11:33:17.014Z,1002.45
2018-03-16T11:34:26.743Z,1002.56
2018-03-16T11:35:36.460Z,1002.64
2018-03-16T11:36:46.176Z,1002.62
2018-03-16T11:37:55.383Z,1002.71
2018-03-16T11:39:05.384Z,1002.42
2018-03-16T11:40:15.111Z,1002.66
2018-03-16T11:41:25.110Z,1002.47
2018-03-16T11:42:35.101Z,1002.67
2018-03-16T11:43:45.065Z,1002.67
2018-03-16T11:44:54.827Z,1002.53
2018-03-16T11:46:04.807Z,1002.54
2018-03-16T11:47:15.006Z,1002.53
2018-03-16T11:48:24.986Z,1002.62
2018-03-16T11:49:34.985Z,1002.52
2018-03-16T11:50:44.712Z,1002.65
2018-03-16T11:51:54.674Z,1002.62
2018-03-16T11:53:04.387Z,1002.58
2018-03-16T11:54:13.838Z,1002.61
2018-03-16T11:55:23.227Z,1002.58
2018-03-16T11:56:32.700Z,1002.56
2018-03-16T11:57:42.673Z,1002.62
2018-03-16T11:58:52.122Z,1002.54
2018-03-16T12:00:01.844Z,1002.52
2018-03-16T12:01:11.813Z,1002.48
2018-03-16T12:02:21.505Z,1002.59
2018-03-16T12:03:30.977Z,1002.55
2018-03-16T12:04:40.931Z,1002.56
2018-03-16T12:05:50.649Z,1002.54
2018-03-16T12:07:00.357Z,1002.59
2018-03-16T12:08:10.073Z,1002.5
2018-03-16T12:09:20.046Z,1002.46
2018-03-16T12:10:30.014Z,1002.42
2018-03-16T12:11:39.989Z,1002.44
2018-03-16T12:12:49.704Z,1002.52
2018-03-16T12:13:59.455Z,1002.56
2018-03-16T12:15:09.448Z,1002.54
2018-03-16T12:16:19.154Z,1002.46
2018-03-16T12:17:28.866Z,1002.47
2018-03-16T12:18:38.825Z,1002.44
2018-03-16T12:19:48.795Z,1002.42
2018-03-16T12:20:58.513Z,1002.48
2018-03-16T12:22:08.468Z,1002.42
2018-03-16T12:23:18.427Z,1002.32
2018-03-16T12:24:28.127Z,1002.47
2018-03-16T12:25:38.143Z,1002.51
2018-03-16T12:26:47.321Z,1002.47
2018-03-16T12:27:57.295Z,1002.49
2018-03-16T12:29:06.732Z,1002.53
2018-03-16T12:30:16.702Z,1002.5
2018-03-16T12:31:26.673Z,1002.54
2018-03-16T12:32:36.657Z,1002.45
2018-03-16T12:33:46.098Z,1002.53
2018-03-16T12:34:55.833Z,1002.53
2018-03-16T12:36:05.553Z,1002.56
2018-03-16T12:37:15.023Z,1002.52
2018-03-16T12:38:25.016Z,1002.54
2018-03-16T12:39:34.602Z,1002.49
2018-03-16T12:40:44.402Z,1002.58
2018-03-16T12:41:53.839Z,1002.56
2018-03-16T12:43:03.327Z,1002.48
2018-03-16T12:44:13.020Z,1002.52
2018-03-16T12:45:23.019Z,1002.49
2018-03-16T12:46:32.973Z,1002.47
2018-03-16T12:47:42.664Z,1002.59
2018-03-16T12:48:52.406Z,1002.51
2018-03-16T12:50:02.361Z,1002.46
2018-03-16T12:51:11.539Z,1002.55
2018-03-16T12:52:21.248Z,1002.52
2018-03-16T12:53:31.223Z,1002.54
2018-03-16T12:54:40.927Z,1002.57
2018-03-16T12:55:50.361Z,1002.52
2018-03-16T12:57:00.322Z,1002.47
2018-03-16T12:58:10.299Z,1002.54
2018-03-16T12:59:19.738Z,1002.5
2018-03-16T13:00:29.184Z,1002.53
2018-03-16T13:01:38.890Z,1002.56
2018-03-16T13:02:48.603Z,1002.66
2018-03-16T13:03:57.811Z,1002.64
2018-03-16T13:05:07.252Z,1002.67
2018-03-16T13:06:16.983Z,1002.67
2018-03-16T13:07:26.984Z,1002.66
2018-03-16T13:08:36.430Z,1002.7
2018-03-16T13:09:46.134Z,1002.68
2018-03-16T13:10:56.108Z,1002.73
2018-03-16T13:12:06.077Z,1002.71
2018-03-16T13:13:16.092Z,1002.73
2018-03-16T13:14:25.807Z,1002.78
2018-03-16T13:15:35.514Z,1002.79
2018-03-16T13:16:45.491Z,1002.74
2018-03-16T13:17:55.460Z,1002.76
2018-03-16T13:19:05.188Z,1002.75
2018-03-16T13:20:15.368Z,1002.75
2018-03-16T13:21:25.356Z,1002.83
2018-03-16T13:22:34.560Z,1002.83
2018-03-16T13:23:44.007Z,1002.8
2018-03-16T13:24:53.461Z,1002.75
2018-03-16T13:26:03.179Z,1002.86
2018-03-16T13:27:12.099Z,1002.83
2018-03-16T13:28:22.066Z,1002.81
2018-03-16T13:29:31.786Z,1002.84
2018-03-16T13:30:41.509Z,1002.78
2018-03-16T13:31:51.497Z,1002.83
2018-03-16T13:33:01.489Z,1002.77
2018-03-16T13:34:11.335Z,1002.82
2018-03-16T13:35:20.511Z,1002.75
2018-03-16T13:36:29.956Z,1002.86
2018-03-16T13:37:39.933Z,1002.89
2018-03-16T13:38:49.939Z,1002.81
2018-03-16T13:40:00.116Z,1002.86
2018-03-16T13:41:10.072Z,1002.87
2018-03-16T13:42:19.766Z,1002.84
2018-03-16T13:43:29.740Z,1002.86
2018-03-16T13:44:39.713Z,1002.83
2018-03-16T13:45:49.436Z,1002.84
2018-03-16T13:46:59.403Z,1002.85
2018-03-16T13:48:09.128Z,1002.86
2018-03-16T13:49:18.916Z,1002.81
2018-03-16T13:50:28.389Z,1002.87
2018-03-16T13:51:38.395Z,1002.85
2018-03-16T13:52:48.122Z,1002.94
2018-03-16T13:53:57.855Z,1002.86
2018-03-16T13:55:07.906Z,1002.85
2018-03-16T13:56:17.647Z,1002.95
2018-03-16T13:57:27.659Z,1002.84
2018-03-16T13:58:37.370Z,1002.93
2018-03-16T13:59:47.093Z,1002.89
2018-03-16T14:00:56.554Z,1002.89
2018-03-16T14:02:06.262Z,1002.95
2018-03-16T14:03:15.712Z,1002.92
2018-03-16T14:04:25.962Z,1002.93
2018-03-16T14:05:35.932Z,1002.96
2018-03-16T14:06:45.641Z,1002.96